sensor_id;sensor_type;location;lat;lon;timestamp;P1;durP1;ratioP1;P2;durP2;ratioP2
34212;SDS011;20477;51.390;8.102;2023-09-08T00:00:20;8.65;;;5.65;;
34212;SDS011;20477;51.390;8.102;2023-09-08T00:02:49;7.45;;;6.05;;
34212;SDS011;20477;51.390;8.102;2023-09-08T00:05:17;10.45;;;5.97;;
34212;SDS011;20477;51.390;8.102;2023-09-08T00:07:46;11.55;;;6.30;;
34212;SDS011;20477;51.390;8.102;2023-09-08T00:10:14;9.02;;;5.72;;
34212;SDS011;20477;51.390;8.102;2023-09-08T00:12:45;11.35;;;6.85;;
34212;SDS011;20477;51.390;8.102;2023-09-08T00:15:13;13.63;;;6.10;;
34212;SDS011;20477;51.390;8.102;2023-09-08T00:17:42;8.35;;;5.80;;
34212;SDS011;20477;51.390;8.102;2023-09-08T00:20:10;9.55;;;5.65;;
34212;SDS011;20477;51.390;8.102;2023-09-08T00:22:39;9.85;;;6.20;;
34212;SDS011;20477;51.390;8.102;2023-09-08T00:25:08;7.60;;;5.63;;
34212;SDS011;20477;51.390;8.102;2023-09-08T00:27:36;11.55;;;6.05;;
34212;SDS011;20477;51.390;8.102;2023-09-08T00:30:07;8.27;;;6.53;;
34212;SDS011;20477;51.390;8.102;2023-09-08T00:32:36;15.10;;;6.65;;
34212;SDS011;20477;51.390;8.102;2023-09-08T00:35:05;11.68;;;6.30;;
34212;SDS011;20477;51.390;8.102;2023-09-08T00:37:35;9.48;;;6.00;;
34212;SDS011;20477;51.390;8.102;2023-09-08T00:40:04;7.47;;;5.43;;
34212;SDS011;20477;51.390;8.102;2023-09-08T00:42:34;8.10;;;5.55;;
34212;SDS011;20477;51.390;8.102;2023-09-08T00:45:03;8.73;;;6.00;;
34212;SDS011;20477;51.390;8.102;2023-09-08T00:47:34;7.57;;;5.90;;
34212;SDS011;20477;51.390;8.102;2023-09-08T00:50:03;10.25;;;5.85;;
34212;SDS011;20477;51.390;8.102;2023-09-08T00:52:34;10.57;;;6.13;;
34212;SDS011;20477;51.390;8.102;2023-09-08T00:55:03;6.93;;;5.28;;
34212;SDS011;20477;51.390;8.102;2023-09-08T00:57:32;13.43;;;5.93;;
34212;SDS011;20477;51.390;8.102;2023-09-08T01:00:00;8.38;;;5.65;;
34212;SDS011;20477;51.390;8.102;2023-09-08T01:02:32;14.63;;;5.22;;
34212;SDS011;20477;51.390;8.102;2023-09-08T01:05:01;14.27;;;6.20;;
34212;SDS011;20477;51.390;8.102;2023-09-08T01:07:30;8.10;;;5.45;;
34212;SDS011;20477;51.390;8.102;2023-09-08T01:10:01;8.50;;;5.35;;
34212;SDS011;20477;51.390;8.102;2023-09-08T01:12:32;8.43;;;5.35;;
34212;SDS011;20477;51.390;8.102;2023-09-08T01:15:01;12.25;;;6.13;;
34212;SDS011;20477;51.390;8.102;2023-09-08T01:17:30;24.25;;;5.97;;
34212;SDS011;20477;51.390;8.102;2023-09-08T01:20:04;14.10;;;6.25;;
34212;SDS011;20477;51.390;8.102;2023-09-08T01:25:40;11.00;;;5.53;;
34212;SDS011;20477;51.390;8.102;2023-09-08T01:28:14;10.70;;;5.55;;
34212;SDS011;20477;51.390;8.102;2023-09-08T01:30:44;8.43;;;5.65;;
34212;SDS011;20477;51.390;8.102;2023-09-08T01:33:14;9.13;;;4.97;;
34212;SDS011;20477;51.390;8.102;2023-09-08T01:35:43;6.95;;;5.43;;
34212;SDS011;20477;51.390;8.102;2023-09-08T01:38:11;8.75;;;5.32;;
34212;SDS011;20477;51.390;8.102;2023-09-08T01:40:41;11.80;;;6.05;;
34212;SDS011;20477;51.390;8.102;2023-09-08T01:43:09;9.02;;;5.68;;
34212;SDS011;20477;51.390;8.102;2023-09-08T01:45:38;12.85;;;5.85;;
34212;SDS011;20477;51.390;8.102;2023-09-08T01:48:06;6.68;;;4.32;;
34212;SDS011;20477;51.390;8.102;2023-09-08T01:50:35;8.13;;;5.30;;
34212;SDS011;20477;51.390;8.102;2023-09-08T01:53:03;8.80;;;6.05;;
34212;SDS011;20477;51.390;8.102;2023-09-08T01:55:32;8.73;;;6.18;;
34212;SDS011;20477;51.390;8.102;2023-09-08T01:58:01;13.02;;;6.20;;
34212;SDS011;20477;51.390;8.102;2023-09-08T02:00:30;8.43;;;6.32;;
34212;SDS011;20477;51.390;8.102;2023-09-08T02:02:59;10.25;;;5.97;;
34212;SDS011;20477;51.390;8.102;2023-09-08T02:05:27;10.55;;;6.25;;
34212;SDS011;20477;51.390;8.102;2023-09-08T02:07:56;7.30;;;5.50;;
34212;SDS011;20477;51.390;8.102;2023-09-08T02:10:24;9.27;;;5.40;;
34212;SDS011;20477;51.390;8.102;2023-09-08T02:13:51;9.73;;;5.47;;
34212;SDS011;20477;51.390;8.102;2023-09-08T02:16:23;9.65;;;5.47;;
34212;SDS011;20477;51.390;8.102;2023-09-08T02:18:52;10.52;;;6.15;;
34212;SDS011;20477;51.390;8.102;2023-09-08T02:21:20;8.75;;;5.55;;
34212;SDS011;20477;51.390;8.102;2023-09-08T02:23:49;11.63;;;5.80;;
34212;SDS011;20477;51.390;8.102;2023-09-08T02:26:18;9.20;;;5.88;;
34212;SDS011;20477;51.390;8.102;2023-09-08T02:28:46;14.32;;;6.32;;
34212;SDS011;20477;51.390;8.102;2023-09-08T02:31:16;9.43;;;6.45;;
34212;SDS011;20477;51.390;8.102;2023-09-08T02:33:44;10.13;;;6.57;;
34212;SDS011;20477;51.390;8.102;2023-09-08T02:36:13;9.50;;;6.72;;
34212;SDS011;20477;51.390;8.102;2023-09-08T02:38:41;10.00;;;6.88;;
34212;SDS011;20477;51.390;8.102;2023-09-08T02:41:10;9.25;;;6.32;;
34212;SDS011;20477;51.390;8.102;2023-09-08T02:43:38;9.05;;;6.50;;
34212;SDS011;20477;51.390;8.102;2023-09-08T02:46:06;8.00;;;6.13;;
34212;SDS011;20477;51.390;8.102;2023-09-08T02:48:37;9.90;;;6.90;;
34212;SDS011;20477;51.390;8.102;2023-09-08T02:51:06;10.82;;;6.78;;
34212;SDS011;20477;51.390;8.102;2023-09-08T02:53:35;13.13;;;7.78;;
34212;SDS011;20477;51.390;8.102;2023-09-08T02:56:03;11.00;;;6.95;;
34212;SDS011;20477;51.390;8.102;2023-09-08T02:58:32;9.43;;;6.53;;
34212;SDS011;20477;51.390;8.102;2023-09-08T03:01:09;13.65;;;6.70;;
34212;SDS011;20477;51.390;8.102;2023-09-08T03:03:42;12.23;;;6.45;;
34212;SDS011;20477;51.390;8.102;2023-09-08T03:06:11;10.50;;;6.95;;
34212;SDS011;20477;51.390;8.102;2023-09-08T03:08:41;12.23;;;6.60;;
34212;SDS011;20477;51.390;8.102;2023-09-08T03:11:09;13.05;;;6.93;;
34212;SDS011;20477;51.390;8.102;2023-09-08T03:13:39;10.50;;;6.50;;
34212;SDS011;20477;51.390;8.102;2023-09-08T03:16:08;8.55;;;6.18;;
34212;SDS011;20477;51.390;8.102;2023-09-08T03:18:37;10.30;;;7.22;;
34212;SDS011;20477;51.390;8.102;2023-09-08T03:21:07;13.57;;;7.43;;
34212;SDS011;20477;51.390;8.102;2023-09-08T03:23:39;19.05;;;7.80;;
34212;SDS011;20477;51.390;8.102;2023-09-08T03:26:09;12.05;;;6.75;;
34212;SDS011;20477;51.390;8.102;2023-09-08T03:28:38;7.82;;;6.43;;
34212;SDS011;20477;51.390;8.102;2023-09-08T03:31:06;9.85;;;6.63;;
34212;SDS011;20477;51.390;8.102;2023-09-08T03:33:35;13.20;;;7.18;;
34212;SDS011;20477;51.390;8.102;2023-09-08T03:36:03;10.35;;;7.03;;
34212;SDS011;20477;51.390;8.102;2023-09-08T03:38:33;11.90;;;7.00;;
34212;SDS011;20477;51.390;8.102;2023-09-08T03:41:03;9.77;;;7.00;;
34212;SDS011;20477;51.390;8.102;2023-09-08T03:43:31;15.75;;;7.03;;
34212;SDS011;20477;51.390;8.102;2023-09-08T03:46:00;8.35;;;6.65;;
34212;SDS011;20477;51.390;8.102;2023-09-08T03:48:29;13.77;;;7.57;;
34212;SDS011;20477;51.390;8.102;2023-09-08T03:50:57;12.10;;;7.40;;
34212;SDS011;20477;51.390;8.102;2023-09-08T03:53:26;11.82;;;6.88;;
34212;SDS011;20477;51.390;8.102;2023-09-08T03:55:56;10.70;;;6.60;;
34212;SDS011;20477;51.390;8.102;2023-09-08T03:58:24;12.45;;;6.97;;
34212;SDS011;20477;51.390;8.102;2023-09-08T04:00:53;10.38;;;6.97;;
34212;SDS011;20477;51.390;8.102;2023-09-08T04:03:22;8.05;;;6.47;;
34212;SDS011;20477;51.390;8.102;2023-09-08T04:05:51;8.73;;;6.50;;
34212;SDS011;20477;51.390;8.102;2023-09-08T04:08:19;8.85;;;6.90;;
34212;SDS011;20477;51.390;8.102;2023-09-08T04:10:47;13.32;;;7.10;;
34212;SDS011;20477;51.390;8.102;2023-09-08T04:13:17;8.15;;;6.47;;
34212;SDS011;20477;51.390;8.102;2023-09-08T04:15:45;9.32;;;6.50;;
34212;SDS011;20477;51.390;8.102;2023-09-08T04:18:14;7.35;;;6.03;;
34212;SDS011;20477;51.390;8.102;2023-09-08T04:20:43;10.40;;;7.57;;
34212;SDS011;20477;51.390;8.102;2023-09-08T04:23:11;8.57;;;7.20;;
34212;SDS011;20477;51.390;8.102;2023-09-08T04:25:39;9.43;;;6.90;;
34212;SDS011;20477;51.390;8.102;2023-09-08T04:28:08;13.90;;;7.10;;
34212;SDS011;20477;51.390;8.102;2023-09-08T04:30:38;12.32;;;6.80;;
34212;SDS011;20477;51.390;8.102;2023-09-08T04:33:07;12.90;;;7.50;;
34212;SDS011;20477;51.390;8.102;2023-09-08T04:35:35;14.23;;;8.05;;
34212;SDS011;20477;51.390;8.102;2023-09-08T04:38:04;10.95;;;8.77;;
34212;SDS011;20477;51.390;8.102;2023-09-08T04:40:32;19.52;;;9.70;;
34212;SDS011;20477;51.390;8.102;2023-09-08T04:43:01;18.08;;;10.50;;
34212;SDS011;20477;51.390;8.102;2023-09-08T04:45:30;16.45;;;10.00;;
34212;SDS011;20477;51.390;8.102;2023-09-08T04:47:59;20.90;;;12.75;;
34212;SDS011;20477;51.390;8.102;2023-09-08T04:50:28;23.85;;;11.88;;
34212;SDS011;20477;51.390;8.102;2023-09-08T04:52:56;20.33;;;11.73;;
34212;SDS011;20477;51.390;8.102;2023-09-08T04:55:25;19.13;;;10.52;;
34212;SDS011;20477;51.390;8.102;2023-09-08T04:57:53;21.27;;;11.27;;
34212;SDS011;20477;51.390;8.102;2023-09-08T05:00:22;18.80;;;12.07;;
34212;SDS011;20477;51.390;8.102;2023-09-08T05:02:50;19.77;;;12.90;;
34212;SDS011;20477;51.390;8.102;2023-09-08T05:05:20;20.65;;;12.95;;
34212;SDS011;20477;51.390;8.102;2023-09-08T05:07:48;22.52;;;12.55;;
34212;SDS011;20477;51.390;8.102;2023-09-08T05:10:18;21.73;;;12.00;;
34212;SDS011;20477;51.390;8.102;2023-09-08T05:12:46;18.38;;;12.05;;
34212;SDS011;20477;51.390;8.102;2023-09-08T05:15:15;23.13;;;13.23;;
34212;SDS011;20477;51.390;8.102;2023-09-08T05:17:47;20.70;;;12.60;;
34212;SDS011;20477;51.390;8.102;2023-09-08T05:20:15;19.08;;;13.20;;
34212;SDS011;20477;51.390;8.102;2023-09-08T05:22:45;22.45;;;12.23;;
34212;SDS011;20477;51.390;8.102;2023-09-08T05:25:13;24.65;;;13.55;;
34212;SDS011;20477;51.390;8.102;2023-09-08T05:27:42;23.17;;;12.65;;
34212;SDS011;20477;51.390;8.102;2023-09-08T05:30:12;26.20;;;13.15;;
34212;SDS011;20477;51.390;8.102;2023-09-08T05:32:40;18.73;;;13.13;;
34212;SDS011;20477;51.390;8.102;2023-09-08T05:35:09;24.60;;;13.00;;
34212;SDS011;20477;51.390;8.102;2023-09-08T05:37:37;14.93;;;11.35;;
34212;SDS011;20477;51.390;8.102;2023-09-08T05:40:08;29.67;;;12.27;;
34212;SDS011;20477;51.390;8.102;2023-09-08T05:42:38;17.15;;;10.43;;
34212;SDS011;20477;51.390;8.102;2023-09-08T05:45:09;17.10;;;11.20;;
34212;SDS011;20477;51.390;8.102;2023-09-08T05:47:38;17.92;;;10.35;;
34212;SDS011;20477;51.390;8.102;2023-09-08T05:50:07;14.25;;;9.52;;
34212;SDS011;20477;51.390;8.102;2023-09-08T05:52:36;13.77;;;9.70;;
34212;SDS011;20477;51.390;8.102;2023-09-08T05:55:04;14.68;;;9.52;;
34212;SDS011;20477;51.390;8.102;2023-09-08T05:57:35;16.58;;;9.70;;
34212;SDS011;20477;51.390;8.102;2023-09-08T06:00:03;15.45;;;8.98;;
34212;SDS011;20477;51.390;8.102;2023-09-08T06:02:33;16.70;;;9.32;;
34212;SDS011;20477;51.390;8.102;2023-09-08T06:05:02;15.00;;;10.15;;
34212;SDS011;20477;51.390;8.102;2023-09-08T06:07:31;20.70;;;10.70;;
34212;SDS011;20477;51.390;8.102;2023-09-08T06:10:01;11.95;;;9.63;;
34212;SDS011;20477;51.390;8.102;2023-09-08T06:12:29;17.60;;;10.32;;
34212;SDS011;20477;51.390;8.102;2023-09-08T06:14:59;14.45;;;10.77;;
34212;SDS011;20477;51.390;8.102;2023-09-08T06:17:29;26.20;;;10.82;;
34212;SDS011;20477;51.390;8.102;2023-09-08T06:19:58;16.05;;;9.93;;
34212;SDS011;20477;51.390;8.102;2023-09-08T06:22:26;15.35;;;10.70;;
34212;SDS011;20477;51.390;8.102;2023-09-08T06:24:55;12.60;;;8.93;;
34212;SDS011;20477;51.390;8.102;2023-09-08T06:27:23;16.85;;;10.02;;
34212;SDS011;20477;51.390;8.102;2023-09-08T06:29:51;14.70;;;9.13;;
34212;SDS011;20477;51.390;8.102;2023-09-08T06:32:24;20.40;;;11.00;;
34212;SDS011;20477;51.390;8.102;2023-09-08T06:34:53;13.60;;;9.27;;
34212;SDS011;20477;51.390;8.102;2023-09-08T06:37:21;18.17;;;9.63;;
34212;SDS011;20477;51.390;8.102;2023-09-08T06:39:49;14.07;;;8.85;;
34212;SDS011;20477;51.390;8.102;2023-09-08T06:42:18;20.40;;;8.52;;
34212;SDS011;20477;51.390;8.102;2023-09-08T06:44:46;17.05;;;8.50;;
34212;SDS011;20477;51.390;8.102;2023-09-08T06:47:15;15.90;;;8.68;;
34212;SDS011;20477;51.390;8.102;2023-09-08T06:49:44;17.13;;;8.68;;
34212;SDS011;20477;51.390;8.102;2023-09-08T06:52:13;20.27;;;8.02;;
34212;SDS011;20477;51.390;8.102;2023-09-08T06:54:42;13.20;;;7.95;;
34212;SDS011;20477;51.390;8.102;2023-09-08T06:57:12;15.80;;;7.15;;
34212;SDS011;20477;51.390;8.102;2023-09-08T06:59:40;11.45;;;8.07;;
34212;SDS011;20477;51.390;8.102;2023-09-08T07:02:09;14.18;;;7.80;;
34212;SDS011;20477;51.390;8.102;2023-09-08T07:04:37;10.80;;;7.55;;
34212;SDS011;20477;51.390;8.102;2023-09-08T07:07:08;13.70;;;7.03;;
34212;SDS011;20477;51.390;8.102;2023-09-08T07:09:37;13.95;;;7.43;;
34212;SDS011;20477;51.390;8.102;2023-09-08T07:12:06;9.38;;;6.97;;
34212;SDS011;20477;51.390;8.102;2023-09-08T07:14:34;14.13;;;6.00;;
34212;SDS011;20477;51.390;8.102;2023-09-08T07:17:04;13.95;;;6.00;;
34212;SDS011;20477;51.390;8.102;2023-09-08T07:19:33;11.50;;;6.25;;
34212;SDS011;20477;51.390;8.102;2023-09-08T07:22:01;9.68;;;5.57;;
34212;SDS011;20477;51.390;8.102;2023-09-08T07:24:31;10.23;;;5.88;;
34212;SDS011;20477;51.390;8.102;2023-09-08T07:27:00;7.93;;;5.40;;
34212;SDS011;20477;51.390;8.102;2023-09-08T07:29:29;20.20;;;6.43;;
34212;SDS011;20477;51.390;8.102;2023-09-08T07:31:57;10.00;;;5.80;;
34212;SDS011;20477;51.390;8.102;2023-09-08T07:34:26;8.68;;;5.30;;
34212;SDS011;20477;51.390;8.102;2023-09-08T07:36:54;10.50;;;5.93;;
34212;SDS011;20477;51.390;8.102;2023-09-08T07:39:22;10.15;;;5.70;;
34212;SDS011;20477;51.390;8.102;2023-09-08T07:41:52;10.32;;;5.93;;
34212;SDS011;20477;51.390;8.102;2023-09-08T07:44:26;10.90;;;5.80;;
34212;SDS011;20477;51.390;8.102;2023-09-08T07:46:55;8.52;;;5.55;;
34212;SDS011;20477;51.390;8.102;2023-09-08T07:49:24;9.13;;;5.70;;
34212;SDS011;20477;51.390;8.102;2023-09-08T07:51:52;9.55;;;6.03;;
34212;SDS011;20477;51.390;8.102;2023-09-08T07:54:21;8.10;;;5.65;;
34212;SDS011;20477;51.390;8.102;2023-09-08T07:56:50;10.45;;;5.45;;
34212;SDS011;20477;51.390;8.102;2023-09-08T07:59:20;7.53;;;5.82;;
34212;SDS011;20477;51.390;8.102;2023-09-08T08:01:48;14.18;;;5.45;;
34212;SDS011;20477;51.390;8.102;2023-09-08T08:04:17;9.52;;;5.95;;
34212;SDS011;20477;51.390;8.102;2023-09-08T08:06:48;10.48;;;5.70;;
34212;SDS011;20477;51.390;8.102;2023-09-08T08:09:17;12.57;;;5.38;;
34212;SDS011;20477;51.390;8.102;2023-09-08T08:11:45;8.25;;;4.50;;
34212;SDS011;20477;51.390;8.102;2023-09-08T08:14:13;7.00;;;5.57;;
34212;SDS011;20477;51.390;8.102;2023-09-08T08:16:43;7.85;;;5.13;;
34212;SDS011;20477;51.390;8.102;2023-09-08T08:19:12;8.85;;;4.65;;
34212;SDS011;20477;51.390;8.102;2023-09-08T08:21:40;6.82;;;4.85;;
34212;SDS011;20477;51.390;8.102;2023-09-08T08:24:09;10.43;;;6.22;;
34212;SDS011;20477;51.390;8.102;2023-09-08T08:26:37;8.65;;;5.15;;
34212;SDS011;20477;51.390;8.102;2023-09-08T08:29:06;12.77;;;5.82;;
34212;SDS011;20477;51.390;8.102;2023-09-08T08:31:34;11.77;;;5.25;;
34212;SDS011;20477;51.390;8.102;2023-09-08T08:34:04;7.78;;;5.20;;
34212;SDS011;20477;51.390;8.102;2023-09-08T08:36:32;10.30;;;5.10;;
34212;SDS011;20477;51.390;8.102;2023-09-08T08:39:01;11.48;;;4.50;;
34212;SDS011;20477;51.390;8.102;2023-09-08T08:41:31;11.38;;;5.22;;
34212;SDS011;20477;51.390;8.102;2023-09-08T08:44:04;9.27;;;4.75;;
34212;SDS011;20477;51.390;8.102;2023-09-08T08:46:34;6.03;;;4.38;;
34212;SDS011;20477;51.390;8.102;2023-09-08T08:49:06;8.52;;;4.68;;
34212;SDS011;20477;51.390;8.102;2023-09-08T08:51:35;9.77;;;4.85;;
34212;SDS011;20477;51.390;8.102;2023-09-08T08:54:05;9.60;;;4.43;;
34212;SDS011;20477;51.390;8.102;2023-09-08T08:56:35;16.42;;;4.57;;
34212;SDS011;20477;51.390;8.102;2023-09-08T08:59:04;21.85;;;5.30;;
34212;SDS011;20477;51.390;8.102;2023-09-08T09:01:32;8.07;;;4.75;;
34212;SDS011;20477;51.390;8.102;2023-09-08T09:04:01;13.15;;;5.28;;
34212;SDS011;20477;51.390;8.102;2023-09-08T09:06:35;10.18;;;4.38;;
34212;SDS011;20477;51.390;8.102;2023-09-08T09:09:04;9.82;;;5.85;;
34212;SDS011;20477;51.390;8.102;2023-09-08T09:11:34;6.72;;;4.40;;
34212;SDS011;20477;51.390;8.102;2023-09-08T09:14:03;17.70;;;5.30;;
34212;SDS011;20477;51.390;8.102;2023-09-08T09:16:33;9.95;;;4.70;;
34212;SDS011;20477;51.390;8.102;2023-09-08T09:19:09;16.70;;;4.90;;
34212;SDS011;20477;51.390;8.102;2023-09-08T09:21:45;6.00;;;4.18;;
34212;SDS011;20477;51.390;8.102;2023-09-08T09:24:17;13.02;;;4.78;;
34212;SDS011;20477;51.390;8.102;2023-09-08T09:26:56;13.13;;;5.07;;
34212;SDS011;20477;51.390;8.102;2023-09-08T09:29:24;11.88;;;4.18;;
34212;SDS011;20477;51.390;8.102;2023-09-08T09:31:55;15.95;;;5.22;;
34212;SDS011;20477;51.390;8.102;2023-09-08T09:34:31;10.73;;;5.00;;
34212;SDS011;20477;51.390;8.102;2023-09-08T09:36:59;10.73;;;4.68;;
34212;SDS011;20477;51.390;8.102;2023-09-08T09:39:31;10.18;;;4.45;;
34212;SDS011;20477;51.390;8.102;2023-09-08T09:41:59;11.90;;;4.80;;
34212;SDS011;20477;51.390;8.102;2023-09-08T09:44:30;8.88;;;4.10;;
34212;SDS011;20477;51.390;8.102;2023-09-08T09:47:00;8.48;;;3.60;;
34212;SDS011;20477;51.390;8.102;2023-09-08T09:49:30;11.32;;;4.20;;
34212;SDS011;20477;51.390;8.102;2023-09-08T09:51:59;5.60;;;4.20;;
34212;SDS011;20477;51.390;8.102;2023-09-08T09:54:27;7.32;;;4.15;;
34212;SDS011;20477;51.390;8.102;2023-09-08T09:56:57;7.20;;;4.00;;
34212;SDS011;20477;51.390;8.102;2023-09-08T09:59:26;7.95;;;4.43;;
34212;SDS011;20477;51.390;8.102;2023-09-08T10:01:55;8.70;;;4.03;;
34212;SDS011;20477;51.390;8.102;2023-09-08T10:04:23;8.88;;;4.63;;
34212;SDS011;20477;51.390;8.102;2023-09-08T10:06:53;8.45;;;3.90;;
34212;SDS011;20477;51.390;8.102;2023-09-08T10:09:23;6.07;;;4.10;;
34212;SDS011;20477;51.390;8.102;2023-09-08T10:11:52;5.47;;;3.85;;
34212;SDS011;20477;51.390;8.102;2023-09-08T10:14:27;7.35;;;3.83;;
34212;SDS011;20477;51.390;8.102;2023-09-08T10:16:59;5.80;;;3.97;;
34212;SDS011;20477;51.390;8.102;2023-09-08T10:19:29;5.27;;;3.97;;
34212;SDS011;20477;51.390;8.102;2023-09-08T10:22:01;12.25;;;4.70;;
34212;SDS011;20477;51.390;8.102;2023-09-08T10:24:34;11.07;;;3.58;;
34212;SDS011;20477;51.390;8.102;2023-09-08T10:27:04;5.35;;;3.72;;
34212;SDS011;20477;51.390;8.102;2023-09-08T10:29:36;6.70;;;3.95;;
34212;SDS011;20477;51.390;8.102;2023-09-08T10:32:05;6.97;;;3.30;;
34212;SDS011;20477;51.390;8.102;2023-09-08T10:34:37;8.70;;;3.60;;
34212;SDS011;20477;51.390;8.102;2023-09-08T10:37:18;7.90;;;3.35;;
34212;SDS011;20477;51.390;8.102;2023-09-08T10:39:48;4.32;;;3.45;;
34212;SDS011;20477;51.390;8.102;2023-09-08T10:42:20;7.60;;;3.83;;
34212;SDS011;20477;51.390;8.102;2023-09-08T10:44:56;7.90;;;4.40;;
34212;SDS011;20477;51.390;8.102;2023-09-08T10:47:54;7.05;;;4.07;;
34212;SDS011;20477;51.390;8.102;2023-09-08T10:50:30;5.87;;;3.73;;
34212;SDS011;20477;51.390;8.102;2023-09-08T10:53:08;5.07;;;3.55;;
34212;SDS011;20477;51.390;8.102;2023-09-08T10:55:43;4.22;;;3.75;;
34212;SDS011;20477;51.390;8.102;2023-09-08T10:58:35;5.70;;;3.60;;
34212;SDS011;20477;51.390;8.102;2023-09-08T11:01:05;4.68;;;3.40;;
34212;SDS011;20477;51.390;8.102;2023-09-08T11:03:44;5.35;;;3.22;;
34212;SDS011;20477;51.390;8.102;2023-09-08T11:06:17;12.93;;;4.50;;
34212;SDS011;20477;51.390;8.102;2023-09-08T11:08:50;6.20;;;4.05;;
34212;SDS011;20477;51.390;8.102;2023-09-08T11:11:22;6.03;;;3.58;;
34212;SDS011;20477;51.390;8.102;2023-09-08T11:13:51;5.40;;;3.78;;
34212;SDS011;20477;51.390;8.102;2023-09-08T11:16:19;4.68;;;3.95;;
34212;SDS011;20477;51.390;8.102;2023-09-08T11:18:55;7.60;;;3.97;;
34212;SDS011;20477;51.390;8.102;2023-09-08T11:21:24;7.20;;;4.30;;
34212;SDS011;20477;51.390;8.102;2023-09-08T11:23:54;5.90;;;3.83;;
34212;SDS011;20477;51.390;8.102;2023-09-08T11:26:23;4.78;;;3.80;;
34212;SDS011;20477;51.390;8.102;2023-09-08T11:28:52;7.38;;;3.88;;
34212;SDS011;20477;51.390;8.102;2023-09-08T11:31:21;7.70;;;4.00;;
34212;SDS011;20477;51.390;8.102;2023-09-08T11:33:54;6.88;;;3.70;;
34212;SDS011;20477;51.390;8.102;2023-09-08T11:36:23;7.85;;;3.90;;
34212;SDS011;20477;51.390;8.102;2023-09-08T11:38:52;10.85;;;3.35;;
34212;SDS011;20477;51.390;8.102;2023-09-08T11:41:21;8.98;;;3.38;;
34212;SDS011;20477;51.390;8.102;2023-09-08T11:43:50;7.10;;;3.35;;
34212;SDS011;20477;51.390;8.102;2023-09-08T11:46:19;4.65;;;4.07;;
34212;SDS011;20477;51.390;8.102;2023-09-08T11:48:49;4.90;;;3.55;;
34212;SDS011;20477;51.390;8.102;2023-09-08T11:51:22;6.60;;;3.67;;
34212;SDS011;20477;51.390;8.102;2023-09-08T11:53:50;7.13;;;3.47;;
34212;SDS011;20477;51.390;8.102;2023-09-08T11:56:19;5.32;;;3.58;;
34212;SDS011;20477;51.390;8.102;2023-09-08T11:58:49;9.60;;;4.28;;
34212;SDS011;20477;51.390;8.102;2023-09-08T12:01:18;8.20;;;3.88;;
34212;SDS011;20477;51.390;8.102;2023-09-08T12:03:56;7.63;;;3.38;;
34212;SDS011;20477;51.390;8.102;2023-09-08T12:06:26;5.57;;;3.65;;
34212;SDS011;20477;51.390;8.102;2023-09-08T12:08:55;9.73;;;4.00;;
34212;SDS011;20477;51.390;8.102;2023-09-08T12:11:33;7.22;;;4.40;;
34212;SDS011;20477;51.390;8.102;2023-09-08T12:14:06;11.23;;;4.47;;
34212;SDS011;20477;51.390;8.102;2023-09-08T12:16:36;8.35;;;3.70;;
34212;SDS011;20477;51.390;8.102;2023-09-08T12:19:05;5.93;;;3.65;;
34212;SDS011;20477;51.390;8.102;2023-09-08T12:21:34;6.95;;;3.35;;
34212;SDS011;20477;51.390;8.102;2023-09-08T12:27:16;6.90;;;3.90;;
34212;SDS011;20477;51.390;8.102;2023-09-08T12:29:52;6.82;;;3.42;;
34212;SDS011;20477;51.390;8.102;2023-09-08T12:32:22;7.57;;;3.67;;
34212;SDS011;20477;51.390;8.102;2023-09-08T12:34:51;9.63;;;3.60;;
34212;SDS011;20477;51.390;8.102;2023-09-08T12:37:20;6.90;;;4.05;;
34212;SDS011;20477;51.390;8.102;2023-09-08T12:39:49;7.07;;;3.75;;
34212;SDS011;20477;51.390;8.102;2023-09-08T12:42:20;7.05;;;3.40;;
34212;SDS011;20477;51.390;8.102;2023-09-08T12:44:52;3.85;;;3.45;;
34212;SDS011;20477;51.390;8.102;2023-09-08T12:47:21;6.95;;;3.45;;
34212;SDS011;20477;51.390;8.102;2023-09-08T12:49:49;4.18;;;3.60;;
34212;SDS011;20477;51.390;8.102;2023-09-08T12:52:18;5.32;;;3.10;;
34212;SDS011;20477;51.390;8.102;2023-09-08T12:54:46;6.07;;;3.60;;
34212;SDS011;20477;51.390;8.102;2023-09-08T12:57:15;4.80;;;3.20;;
34212;SDS011;20477;51.390;8.102;2023-09-08T12:59:45;6.55;;;3.25;;
34212;SDS011;20477;51.390;8.102;2023-09-08T13:02:13;5.78;;;3.28;;
34212;SDS011;20477;51.390;8.102;2023-09-08T13:04:42;5.05;;;3.25;;
34212;SDS011;20477;51.390;8.102;2023-09-08T13:09:43;6.68;;;3.25;;
34212;SDS011;20477;51.390;8.102;2023-09-08T13:12:11;4.53;;;3.67;;
34212;SDS011;20477;51.390;8.102;2023-09-08T13:14:40;7.20;;;3.30;;
34212;SDS011;20477;51.390;8.102;2023-09-08T13:17:11;5.22;;;3.65;;
34212;SDS011;20477;51.390;8.102;2023-09-08T13:19:41;5.07;;;3.80;;
34212;SDS011;20477;51.390;8.102;2023-09-08T13:22:10;7.03;;;3.40;;
34212;SDS011;20477;51.390;8.102;2023-09-08T13:24:38;4.90;;;3.53;;
34212;SDS011;20477;51.390;8.102;2023-09-08T13:27:07;7.03;;;3.55;;
34212;SDS011;20477;51.390;8.102;2023-09-08T13:29:35;3.55;;;3.13;;
34212;SDS011;20477;51.390;8.102;2023-09-08T13:32:04;7.15;;;3.05;;
34212;SDS011;20477;51.390;8.102;2023-09-08T13:34:35;6.45;;;3.25;;
34212;SDS011;20477;51.390;8.102;2023-09-08T13:37:04;9.25;;;3.72;;
34212;SDS011;20477;51.390;8.102;2023-09-08T13:39:34;5.95;;;3.45;;
34212;SDS011;20477;51.390;8.102;2023-09-08T13:42:03;4.53;;;3.38;;
34212;SDS011;20477;51.390;8.102;2023-09-08T13:44:32;5.45;;;3.53;;
34212;SDS011;20477;51.390;8.102;2023-09-08T13:47:00;5.43;;;3.35;;
34212;SDS011;20477;51.390;8.102;2023-09-08T13:49:29;5.80;;;3.13;;
34212;SDS011;20477;51.390;8.102;2023-09-08T13:52:00;5.28;;;3.78;;
34212;SDS011;20477;51.390;8.102;2023-09-08T13:54:31;6.05;;;3.40;;
34212;SDS011;20477;51.390;8.102;2023-09-08T13:57:01;6.35;;;3.70;;
34212;SDS011;20477;51.390;8.102;2023-09-08T13:59:34;4.57;;;3.45;;
34212;SDS011;20477;51.390;8.102;2023-09-08T14:02:07;4.38;;;3.10;;
34212;SDS011;20477;51.390;8.102;2023-09-08T14:04:56;4.60;;;3.25;;
34212;SDS011;20477;51.390;8.102;2023-09-08T14:07:31;4.07;;;3.38;;
34212;SDS011;20477;51.390;8.102;2023-09-08T14:10:03;4.38;;;3.53;;
34212;SDS011;20477;51.390;8.102;2023-09-08T14:12:36;6.82;;;3.65;;
34212;SDS011;20477;51.390;8.102;2023-09-08T14:15:05;12.27;;;3.72;;
34212;SDS011;20477;51.390;8.102;2023-09-08T14:17:44;5.93;;;3.70;;
34212;SDS011;20477;51.390;8.102;2023-09-08T14:20:13;9.95;;;3.58;;
34212;SDS011;20477;51.390;8.102;2023-09-08T14:22:44;5.15;;;3.40;;
34212;SDS011;20477;51.390;8.102;2023-09-08T14:25:12;5.25;;;3.45;;
34212;SDS011;20477;51.390;8.102;2023-09-08T14:27:41;4.93;;;2.83;;
34212;SDS011;20477;51.390;8.102;2023-09-08T14:30:09;4.90;;;2.70;;
34212;SDS011;20477;51.390;8.102;2023-09-08T14:32:38;5.43;;;3.70;;
34212;SDS011;20477;51.390;8.102;2023-09-08T14:35:08;4.50;;;3.35;;
34212;SDS011;20477;51.390;8.102;2023-09-08T14:37:37;4.40;;;3.28;;
34212;SDS011;20477;51.390;8.102;2023-09-08T14:40:07;6.22;;;3.20;;
34212;SDS011;20477;51.390;8.102;2023-09-08T14:42:36;6.63;;;3.17;;
34212;SDS011;20477;51.390;8.102;2023-09-08T14:45:05;6.65;;;3.92;;
34212;SDS011;20477;51.390;8.102;2023-09-08T14:47:35;4.72;;;3.40;;
34212;SDS011;20477;51.390;8.102;2023-09-08T14:50:04;9.15;;;2.95;;
34212;SDS011;20477;51.390;8.102;2023-09-08T14:52:33;5.93;;;3.65;;
34212;SDS011;20477;51.390;8.102;2023-09-08T14:55:01;7.40;;;3.22;;
34212;SDS011;20477;51.390;8.102;2023-09-08T14:57:32;5.45;;;3.30;;
34212;SDS011;20477;51.390;8.102;2023-09-08T15:00:01;8.20;;;3.38;;
34212;SDS011;20477;51.390;8.102;2023-09-08T15:02:31;5.22;;;2.90;;
34212;SDS011;20477;51.390;8.102;2023-09-08T15:04:59;4.72;;;3.10;;